sensor_id;sensor_type;location;lat;lon;timestamp;P1;durP1;ratioP1;P2;durP2;ratioP2
33421;SDS011;19763;55.798;37.782;2023-09-19T00:00:23;28.27;;;23.55;;
33421;SDS011;19763;55.798;37.782;2023-09-19T00:02:52;25.00;;;21.77;;
33421;SDS011;19763;55.798;37.782;2023-09-19T00:05:25;23.83;;;21.35;;
33421;SDS011;19763;55.798;37.782;2023-09-19T00:07:54;25.83;;;19.58;;
33421;SDS011;19763;55.798;37.782;2023-09-19T00:10:24;19.45;;;17.33;;
33421;SDS011;19763;55.798;37.782;2023-09-19T00:12:55;20.27;;;17.77;;
33421;SDS011;19763;55.798;37.782;2023-09-19T00:15:24;20.20;;;16.45;;
33421;SDS011;19763;55.798;37.782;2023-09-19T00:17:56;15.90;;;14.30;;
33421;SDS011;19763;55.798;37.782;2023-09-19T00:20:23;17.38;;;15.07;;
33421;SDS011;19763;55.798;37.782;2023-09-19T00:22:49;19.77;;;15.25;;
33421;SDS011;19763;55.798;37.782;2023-09-19T00:25:17;17.50;;;14.95;;
33421;SDS011;19763;55.798;37.782;2023-09-19T00:27:44;20.40;;;15.30;;
33421;SDS011;19763;55.798;37.782;2023-09-19T00:32:48;17.65;;;14.27;;
33421;SDS011;19763;55.798;37.782;2023-09-19T00:35:20;16.65;;;14.75;;
33421;SDS011;19763;55.798;37.782;2023-09-19T00:37:46;17.38;;;15.00;;
33421;SDS011;19763;55.798;37.782;2023-09-19T00:40:12;14.80;;;13.20;;
33421;SDS011;19763;55.798;37.782;2023-09-19T00:42:38;22.92;;;15.65;;
33421;SDS011;19763;55.798;37.782;2023-09-19T00:45:06;18.45;;;13.80;;
33421;SDS011;19763;55.798;37.782;2023-09-19T00:47:36;16.42;;;14.15;;
33421;SDS011;19763;55.798;37.782;2023-09-19T00:50:03;16.38;;;14.65;;
33421;SDS011;19763;55.798;37.782;2023-09-19T00:52:32;18.02;;;14.35;;
33421;SDS011;19763;55.798;37.782;2023-09-19T00:55:02;18.50;;;15.38;;
33421;SDS011;19763;55.798;37.782;2023-09-19T00:57:29;19.65;;;15.50;;
33421;SDS011;19763;55.798;37.782;2023-09-19T00:59:58;17.55;;;15.48;;
33421;SDS011;19763;55.798;37.782;2023-09-19T01:02:31;20.13;;;15.25;;
33421;SDS011;19763;55.798;37.782;2023-09-19T01:04:58;18.42;;;14.77;;
33421;SDS011;19763;55.798;37.782;2023-09-19T01:07:25;21.40;;;15.43;;
33421;SDS011;19763;55.798;37.782;2023-09-19T01:09:50;15.82;;;13.88;;
33421;SDS011;19763;55.798;37.782;2023-09-19T01:12:21;16.73;;;14.73;;
33421;SDS011;19763;55.798;37.782;2023-09-19T01:14:59;17.08;;;14.40;;
33421;SDS011;19763;55.798;37.782;2023-09-19T01:17:32;16.70;;;14.63;;
33421;SDS011;19763;55.798;37.782;2023-09-19T01:28:19;19.02;;;14.55;;
33421;SDS011;19763;55.798;37.782;2023-09-19T01:30:56;15.48;;;13.82;;
33421;SDS011;19763;55.798;37.782;2023-09-19T01:33:25;15.35;;;13.75;;
33421;SDS011;19763;55.798;37.782;2023-09-19T01:35:51;14.00;;;12.52;;
33421;SDS011;19763;55.798;37.782;2023-09-19T01:38:23;14.68;;;13.18;;
33421;SDS011;19763;55.798;37.782;2023-09-19T01:40:57;14.05;;;12.60;;
33421;SDS011;19763;55.798;37.782;2023-09-19T01:43:37;15.20;;;13.52;;
33421;SDS011;19763;55.798;37.782;2023-09-19T01:46:09;18.42;;;11.98;;
33421;SDS011;19763;55.798;37.782;2023-09-19T01:54:12;13.65;;;12.25;;
33421;SDS011;19763;55.798;37.782;2023-09-19T01:56:52;13.45;;;12.05;;
33421;SDS011;19763;55.798;37.782;2023-09-19T01:59:28;13.10;;;11.75;;
33421;SDS011;19763;55.798;37.782;2023-09-19T02:01:59;13.73;;;12.25;;
33421;SDS011;19763;55.798;37.782;2023-09-19T02:04:26;12.57;;;11.27;;
33421;SDS011;19763;55.798;37.782;2023-09-19T02:06:52;13.73;;;11.70;;
33421;SDS011;19763;55.798;37.782;2023-09-19T02:09:18;13.45;;;12.02;;
33421;SDS011;19763;55.798;37.782;2023-09-19T02:11:44;14.70;;;12.38;;
33421;SDS011;19763;55.798;37.782;2023-09-19T02:14:10;13.15;;;11.27;;
33421;SDS011;19763;55.798;37.782;2023-09-19T02:16:36;14.63;;;11.82;;
33421;SDS011;19763;55.798;37.782;2023-09-19T02:19:02;13.68;;;11.93;;
33421;SDS011;19763;55.798;37.782;2023-09-19T02:21:31;14.57;;;12.32;;
33421;SDS011;19763;55.798;37.782;2023-09-19T02:23:57;13.80;;;11.65;;
33421;SDS011;19763;55.798;37.782;2023-09-19T02:26:24;14.32;;;12.82;;
33421;SDS011;19763;55.798;37.782;2023-09-19T02:28:50;14.35;;;12.85;;
33421;SDS011;19763;55.798;37.782;2023-09-19T02:31:15;12.95;;;11.75;;
33421;SDS011;19763;55.798;37.782;2023-09-19T02:33:41;12.95;;;11.57;;
33421;SDS011;19763;55.798;37.782;2023-09-19T02:36:08;12.25;;;11.07;;
33421;SDS011;19763;55.798;37.782;2023-09-19T02:38:34;12.93;;;10.93;;
33421;SDS011;19763;55.798;37.782;2023-09-19T02:41:00;13.93;;;10.90;;
33421;SDS011;19763;55.798;37.782;2023-09-19T02:43:26;13.18;;;10.95;;
33421;SDS011;19763;55.798;37.782;2023-09-19T02:45:52;12.77;;;11.35;;
33421;SDS011;19763;55.798;37.782;2023-09-19T02:48:19;14.05;;;11.38;;
33421;SDS011;19763;55.798;37.782;2023-09-19T02:50:45;13.07;;;10.88;;
33421;SDS011;19763;55.798;37.782;2023-09-19T02:53:11;10.75;;;9.65;;
33421;SDS011;19763;55.798;37.782;2023-09-19T02:55:40;12.18;;;9.95;;
33421;SDS011;19763;55.798;37.782;2023-09-19T02:58:06;14.45;;;10.90;;
33421;SDS011;19763;55.798;37.782;2023-09-19T03:00:40;11.57;;;10.38;;
33421;SDS011;19763;55.798;37.782;2023-09-19T03:03:07;12.85;;;10.10;;
33421;SDS011;19763;55.798;37.782;2023-09-19T03:05:33;10.65;;;9.20;;
33421;SDS011;19763;55.798;37.782;2023-09-19T03:07:59;11.68;;;9.50;;
33421;SDS011;19763;55.798;37.782;2023-09-19T03:10:28;10.68;;;9.57;;
33421;SDS011;19763;55.798;37.782;2023-09-19T03:12:55;12.85;;;10.07;;
33421;SDS011;19763;55.798;37.782;2023-09-19T03:15:21;11.20;;;9.90;;
33421;SDS011;19763;55.798;37.782;2023-09-19T03:17:47;11.60;;;9.98;;
33421;SDS011;19763;55.798;37.782;2023-09-19T03:20:14;12.32;;;9.75;;
33421;SDS011;19763;55.798;37.782;2023-09-19T03:22:42;10.82;;;9.70;;
33421;SDS011;19763;55.798;37.782;2023-09-19T03:25:09;12.70;;;10.30;;
33421;SDS011;19763;55.798;37.782;2023-09-19T03:27:39;11.90;;;9.32;;
33421;SDS011;19763;55.798;37.782;2023-09-19T03:30:06;12.73;;;9.93;;
33421;SDS011;19763;55.798;37.782;2023-09-19T03:32:37;14.73;;;9.98;;
33421;SDS011;19763;55.798;37.782;2023-09-19T03:35:08;10.57;;;9.48;;
33421;SDS011;19763;55.798;37.782;2023-09-19T03:37:40;15.67;;;10.30;;
33421;SDS011;19763;55.798;37.782;2023-09-19T03:40:07;10.27;;;9.25;;
33421;SDS011;19763;55.798;37.782;2023-09-19T03:42:34;11.43;;;10.20;;
33421;SDS011;19763;55.798;37.782;2023-09-19T03:45:01;11.65;;;9.75;;
33421;SDS011;19763;55.798;37.782;2023-09-19T03:47:31;12.73;;;10.35;;
33421;SDS011;19763;55.798;37.782;2023-09-19T03:49:56;10.43;;;9.32;;
33421;SDS011;19763;55.798;37.782;2023-09-19T03:52:22;11.82;;;10.48;;
33421;SDS011;19763;55.798;37.782;2023-09-19T03:54:47;13.15;;;11.27;;
33421;SDS011;19763;55.798;37.782;2023-09-19T03:57:14;11.82;;;10.63;;
33421;SDS011;19763;55.798;37.782;2023-09-19T03:59:42;11.68;;;10.52;;
33421;SDS011;19763;55.798;37.782;2023-09-19T04:02:11;13.02;;;11.73;;
33421;SDS011;19763;55.798;37.782;2023-09-19T04:04:50;13.13;;;11.73;;
33421;SDS011;19763;55.798;37.782;2023-09-19T04:07:17;15.55;;;11.50;;
33421;SDS011;19763;55.798;37.782;2023-09-19T04:09:44;15.02;;;10.68;;
33421;SDS011;19763;55.798;37.782;2023-09-19T04:12:10;11.38;;;10.10;;
33421;SDS011;19763;55.798;37.782;2023-09-19T04:14:37;12.73;;;11.25;;
33421;SDS011;19763;55.798;37.782;2023-09-19T04:17:03;11.98;;;9.82;;
33421;SDS011;19763;55.798;37.782;2023-09-19T04:19:30;16.50;;;10.63;;
33421;SDS011;19763;55.798;37.782;2023-09-19T04:21:56;14.93;;;9.75;;
33421;SDS011;19763;55.798;37.782;2023-09-19T04:24:22;12.80;;;11.25;;
33421;SDS011;19763;55.798;37.782;2023-09-19T04:26:47;18.55;;;11.82;;
33421;SDS011;19763;55.798;37.782;2023-09-19T04:29:13;13.57;;;10.98;;
33421;SDS011;19763;55.798;37.782;2023-09-19T04:31:39;16.95;;;12.05;;
33421;SDS011;19763;55.798;37.782;2023-09-19T04:34:05;18.38;;;11.60;;
33421;SDS011;19763;55.798;37.782;2023-09-19T04:36:31;14.35;;;11.75;;
33421;SDS011;19763;55.798;37.782;2023-09-19T04:38:57;16.17;;;12.75;;
33421;SDS011;19763;55.798;37.782;2023-09-19T04:41:22;16.75;;;12.57;;
33421;SDS011;19763;55.798;37.782;2023-09-19T04:43:49;15.82;;;12.57;;
33421;SDS011;19763;55.798;37.782;2023-09-19T04:46:16;17.05;;;12.43;;
33421;SDS011;19763;55.798;37.782;2023-09-19T04:48:43;16.80;;;12.30;;
33421;SDS011;19763;55.798;37.782;2023-09-19T04:51:08;15.43;;;12.45;;
33421;SDS011;19763;55.798;37.782;2023-09-19T04:53:35;15.48;;;12.32;;
33421;SDS011;19763;55.798;37.782;2023-09-19T04:56:01;15.10;;;12.32;;
33421;SDS011;19763;55.798;37.782;2023-09-19T04:58:30;16.27;;;12.50;;
33421;SDS011;19763;55.798;37.782;2023-09-19T05:00:56;17.17;;;13.30;;
33421;SDS011;19763;55.798;37.782;2023-09-19T05:03:22;19.23;;;12.77;;
33421;SDS011;19763;55.798;37.782;2023-09-19T05:05:48;16.38;;;12.20;;
33421;SDS011;19763;55.798;37.782;2023-09-19T05:08:14;18.77;;;12.80;;
33421;SDS011;19763;55.798;37.782;2023-09-19T05:10:40;16.75;;;12.32;;
33421;SDS011;19763;55.798;37.782;2023-09-19T05:13:06;18.45;;;13.10;;
33421;SDS011;19763;55.798;37.782;2023-09-19T05:15:35;19.58;;;13.43;;
33421;SDS011;19763;55.798;37.782;2023-09-19T05:18:01;16.58;;;12.32;;
33421;SDS011;19763;55.798;37.782;2023-09-19T05:20:28;15.20;;;12.57;;
33421;SDS011;19763;55.798;37.782;2023-09-19T05:22:58;17.45;;;13.90;;
33421;SDS011;19763;55.798;37.782;2023-09-19T05:25:33;18.40;;;13.75;;
33421;SDS011;19763;55.798;37.782;2023-09-19T05:28:07;20.35;;;14.50;;
33421;SDS011;19763;55.798;37.782;2023-09-19T05:30:34;19.45;;;13.75;;
33421;SDS011;19763;55.798;37.782;2023-09-19T05:33:08;19.17;;;14.27;;
33421;SDS011;19763;55.798;37.782;2023-09-19T05:35:34;18.70;;;14.60;;
33421;SDS011;19763;55.798;37.782;2023-09-19T05:38:05;18.77;;;13.63;;
33421;SDS011;19763;55.798;37.782;2023-09-19T05:40:34;21.13;;;13.73;;
33421;SDS011;19763;55.798;37.782;2023-09-19T05:43:00;17.23;;;13.43;;
33421;SDS011;19763;55.798;37.782;2023-09-19T05:45:27;15.90;;;14.30;;
33421;SDS011;19763;55.798;37.782;2023-09-19T05:47:53;17.65;;;13.43;;
33421;SDS011;19763;55.798;37.782;2023-09-19T05:50:29;17.77;;;13.23;;
33421;SDS011;19763;55.798;37.782;2023-09-19T05:52:55;17.80;;;13.60;;
33421;SDS011;19763;55.798;37.782;2023-09-19T05:55:23;15.48;;;13.15;;
33421;SDS011;19763;55.798;37.782;2023-09-19T05:57:51;24.10;;;13.80;;
33421;SDS011;19763;55.798;37.782;2023-09-19T06:00:26;17.73;;;13.57;;
33421;SDS011;19763;55.798;37.782;2023-09-19T06:02:58;20.42;;;15.63;;
33421;SDS011;19763;55.798;37.782;2023-09-19T06:05:26;24.75;;;16.50;;
33421;SDS011;19763;55.798;37.782;2023-09-19T06:07:53;20.33;;;16.20;;
33421;SDS011;19763;55.798;37.782;2023-09-19T06:10:19;25.30;;;17.58;;
33421;SDS011;19763;55.798;37.782;2023-09-19T06:12:48;22.10;;;16.83;;
33421;SDS011;19763;55.798;37.782;2023-09-19T06:15:15;24.33;;;15.40;;
33421;SDS011;19763;55.798;37.782;2023-09-19T06:17:47;29.50;;;17.45;;
33421;SDS011;19763;55.798;37.782;2023-09-19T06:20:20;20.50;;;18.35;;
33421;SDS011;19763;55.798;37.782;2023-09-19T06:22:47;22.80;;;15.80;;
33421;SDS011;19763;55.798;37.782;2023-09-19T06:25:14;17.52;;;14.65;;
33421;SDS011;19763;55.798;37.782;2023-09-19T06:27:46;20.40;;;15.40;;
33421;SDS011;19763;55.798;37.782;2023-09-19T06:30:12;17.85;;;13.23;;
33421;SDS011;19763;55.798;37.782;2023-09-19T06:32:39;21.27;;;15.10;;
33421;SDS011;19763;55.798;37.782;2023-09-19T06:35:05;21.88;;;15.02;;
33421;SDS011;19763;55.798;37.782;2023-09-19T06:37:36;18.25;;;14.93;;
33421;SDS011;19763;55.798;37.782;2023-09-19T06:42:33;25.05;;;16.05;;
33421;SDS011;19763;55.798;37.782;2023-09-19T06:45:00;20.80;;;17.02;;
33421;SDS011;19763;55.798;37.782;2023-09-19T06:47:25;23.48;;;18.83;;
33421;SDS011;19763;55.798;37.782;2023-09-19T06:49:51;19.35;;;16.23;;
33421;SDS011;19763;55.798;37.782;2023-09-19T06:52:17;18.38;;;16.40;;
33421;SDS011;19763;55.798;37.782;2023-09-19T06:54:47;19.45;;;17.00;;
33421;SDS011;19763;55.798;37.782;2023-09-19T06:57:15;19.45;;;16.02;;
33421;SDS011;19763;55.798;37.782;2023-09-19T06:59:41;23.70;;;15.98;;
33421;SDS011;19763;55.798;37.782;2023-09-19T07:02:07;18.05;;;15.02;;
33421;SDS011;19763;55.798;37.782;2023-09-19T07:04:33;19.58;;;15.43;;
33421;SDS011;19763;55.798;37.782;2023-09-19T07:06:59;17.98;;;14.70;;
33421;SDS011;19763;55.798;37.782;2023-09-19T07:09:24;17.08;;;14.95;;
33421;SDS011;19763;55.798;37.782;2023-09-19T07:11:53;17.55;;;14.73;;
33421;SDS011;19763;55.798;37.782;2023-09-19T07:14:19;18.00;;;14.88;;
33421;SDS011;19763;55.798;37.782;2023-09-19T07:16:45;20.13;;;15.45;;
33421;SDS011;19763;55.798;37.782;2023-09-19T07:19:13;18.05;;;13.98;;
33421;SDS011;19763;55.798;37.782;2023-09-19T07:21:41;17.88;;;14.65;;
33421;SDS011;19763;55.798;37.782;2023-09-19T07:24:08;24.27;;;16.42;;
33421;SDS011;19763;55.798;37.782;2023-09-19T07:26:34;19.52;;;14.10;;
33421;SDS011;19763;55.798;37.782;2023-09-19T07:29:00;19.45;;;16.00;;
33421;SDS011;19763;55.798;37.782;2023-09-19T07:31:29;19.25;;;16.10;;
33421;SDS011;19763;55.798;37.782;2023-09-19T07:33:56;21.17;;;16.35;;
33421;SDS011;19763;55.798;37.782;2023-09-19T07:36:21;19.80;;;15.48;;
33421;SDS011;19763;55.798;37.782;2023-09-19T07:38:49;27.10;;;16.77;;
33421;SDS011;19763;55.798;37.782;2023-09-19T07:41:15;24.90;;;16.63;;
33421;SDS011;19763;55.798;37.782;2023-09-19T07:43:40;19.17;;;14.77;;
33421;SDS011;19763;55.798;37.782;2023-09-19T07:46:07;22.17;;;17.08;;
33421;SDS011;19763;55.798;37.782;2023-09-19T07:48:37;17.50;;;15.68;;
33421;SDS011;19763;55.798;37.782;2023-09-19T07:51:05;25.70;;;16.50;;
33421;SDS011;19763;55.798;37.782;2023-09-19T07:53:32;21.92;;;17.10;;
33421;SDS011;19763;55.798;37.782;2023-09-19T07:56:05;20.20;;;16.30;;
33421;SDS011;19763;55.798;37.782;2023-09-19T07:58:32;23.35;;;15.88;;
33421;SDS011;19763;55.798;37.782;2023-09-19T08:01:06;24.42;;;16.70;;
33421;SDS011;19763;55.798;37.782;2023-09-19T08:03:32;19.80;;;15.23;;
33421;SDS011;19763;55.798;37.782;2023-09-19T08:05:59;27.02;;;15.98;;
33421;SDS011;19763;55.798;37.782;2023-09-19T08:08:26;20.95;;;15.93;;
33421;SDS011;19763;55.798;37.782;2023-09-19T08:10:52;23.02;;;16.02;;
33421;SDS011;19763;55.798;37.782;2023-09-19T08:13:18;18.50;;;14.73;;
33421;SDS011;19763;55.798;37.782;2023-09-19T08:15:46;22.67;;;16.13;;
33421;SDS011;19763;55.798;37.782;2023-09-19T08:18:13;22.42;;;16.15;;
33421;SDS011;19763;55.798;37.782;2023-09-19T08:20:40;22.27;;;15.20;;
33421;SDS011;19763;55.798;37.782;2023-09-19T08:23:07;20.85;;;15.82;;
33421;SDS011;19763;55.798;37.782;2023-09-19T08:25:33;18.58;;;15.13;;
33421;SDS011;19763;55.798;37.782;2023-09-19T08:27:59;25.15;;;15.82;;
33421;SDS011;19763;55.798;37.782;2023-09-19T08:30:28;17.63;;;15.73;;
33421;SDS011;19763;55.798;37.782;2023-09-19T08:33:01;18.52;;;14.98;;
33421;SDS011;19763;55.798;37.782;2023-09-19T08:35:29;21.23;;;15.70;;
33421;SDS011;19763;55.798;37.782;2023-09-19T08:37:55;19.33;;;16.00;;
33421;SDS011;19763;55.798;37.782;2023-09-19T08:40:22;18.88;;;15.90;;
33421;SDS011;19763;55.798;37.782;2023-09-19T08:45:19;19.58;;;16.15;;
33421;SDS011;19763;55.798;37.782;2023-09-19T08:50:28;22.38;;;16.08;;
33421;SDS011;19763;55.798;37.782;2023-09-19T08:52:55;19.13;;;15.13;;
33421;SDS011;19763;55.798;37.782;2023-09-19T08:55:28;19.33;;;16.63;;
33421;SDS011;19763;55.798;37.782;2023-09-19T08:58:05;22.55;;;16.13;;
33421;SDS011;19763;55.798;37.782;2023-09-19T09:00:35;20.10;;;15.52;;
33421;SDS011;19763;55.798;37.782;2023-09-19T09:03:02;20.45;;;15.82;;
33421;SDS011;19763;55.798;37.782;2023-09-19T09:05:31;21.35;;;14.40;;
33421;SDS011;19763;55.798;37.782;2023-09-19T09:07:58;20.08;;;15.07;;
33421;SDS011;19763;55.798;37.782;2023-09-19T09:10:24;19.85;;;15.25;;
33421;SDS011;19763;55.798;37.782;2023-09-19T09:12:53;21.85;;;15.00;;
33421;SDS011;19763;55.798;37.782;2023-09-19T09:15:23;21.77;;;16.30;;
33421;SDS011;19763;55.798;37.782;2023-09-19T09:17:50;25.02;;;15.90;;
33421;SDS011;19763;55.798;37.782;2023-09-19T09:20:18;22.60;;;17.42;;
33421;SDS011;19763;55.798;37.782;2023-09-19T09:22:54;22.75;;;16.67;;
33421;SDS011;19763;55.798;37.782;2023-09-19T09:25:23;21.63;;;15.15;;
33421;SDS011;19763;55.798;37.782;2023-09-19T09:28:21;23.52;;;16.58;;
33421;SDS011;19763;55.798;37.782;2023-09-19T09:30:51;24.15;;;16.83;;
33421;SDS011;19763;55.798;37.782;2023-09-19T09:33:18;20.50;;;17.70;;
33421;SDS011;19763;55.798;37.782;2023-09-19T09:35:51;22.15;;;15.00;;
33421;SDS011;19763;55.798;37.782;2023-09-19T09:38:26;21.58;;;17.30;;
33421;SDS011;19763;55.798;37.782;2023-09-19T09:40:54;24.30;;;16.88;;
33421;SDS011;19763;55.798;37.782;2023-09-19T09:43:38;20.08;;;16.05;;
33421;SDS011;19763;55.798;37.782;2023-09-19T09:46:09;25.85;;;17.30;;
33421;SDS011;19763;55.798;37.782;2023-09-19T09:55:04;20.90;;;16.42;;
33421;SDS011;19763;55.798;37.782;2023-09-19T09:57:34;21.33;;;16.65;;
33421;SDS011;19763;55.798;37.782;2023-09-19T10:00:00;26.38;;;17.38;;
33421;SDS011;19763;55.798;37.782;2023-09-19T10:02:39;25.73;;;19.05;;
33421;SDS011;19763;55.798;37.782;2023-09-19T10:05:13;22.20;;;17.20;;
33421;SDS011;19763;55.798;37.782;2023-09-19T10:07:52;21.35;;;16.33;;
33421;SDS011;19763;55.798;37.782;2023-09-19T10:10:32;24.45;;;15.20;;
33421;SDS011;19763;55.798;37.782;2023-09-19T10:13:09;24.45;;;16.92;;
33421;SDS011;19763;55.798;37.782;2023-09-19T10:15:39;24.33;;;16.77;;
33421;SDS011;19763;55.798;37.782;2023-09-19T10:18:16;21.75;;;15.65;;
33421;SDS011;19763;55.798;37.782;2023-09-19T10:23:19;19.40;;;14.82;;
33421;SDS011;19763;55.798;37.782;2023-09-19T10:25:48;19.27;;;14.20;;
33421;SDS011;19763;55.798;37.782;2023-09-19T10:28:15;20.75;;;15.50;;
33421;SDS011;19763;55.798;37.782;2023-09-19T10:30:47;19.88;;;15.32;;
33421;SDS011;19763;55.798;37.782;2023-09-19T10:33:16;20.85;;;14.93;;
33421;SDS011;19763;55.798;37.782;2023-09-19T10:35:45;25.67;;;16.17;;
33421;SDS011;19763;55.798;37.782;2023-09-19T10:38:13;20.40;;;15.07;;
33421;SDS011;19763;55.798;37.782;2023-09-19T10:40:40;18.33;;;13.65;;
33421;SDS011;19763;55.798;37.782;2023-09-19T10:43:13;23.48;;;15.23;;
33421;SDS011;19763;55.798;37.782;2023-09-19T10:45:43;21.08;;;15.10;;
33421;SDS011;19763;55.798;37.782;2023-09-19T10:48:14;22.30;;;15.50;;
33421;SDS011;19763;55.798;37.782;2023-09-19T10:56:23;21.52;;;15.63;;
33421;SDS011;19763;55.798;37.782;2023-09-19T10:59:10;16.52;;;14.25;;
33421;SDS011;19763;55.798;37.782;2023-09-19T11:07:03;19.05;;;14.98;;
33421;SDS011;19763;55.798;37.782;2023-09-19T11:09:43;23.40;;;15.98;;
33421;SDS011;19763;55.798;37.782;2023-09-19T11:14:58;22.58;;;14.95;;
33421;SDS011;19763;55.798;37.782;2023-09-19T11:17:30;19.70;;;15.40;;
33421;SDS011;19763;55.798;37.782;2023-09-19T11:30:41;19.23;;;14.57;;
33421;SDS011;19763;55.798;37.782;2023-09-19T11:33:17;20.00;;;14.13;;
33421;SDS011;19763;55.798;37.782;2023-09-19T11:46:28;18.30;;;14.50;;
33421;SDS011;19763;55.798;37.782;2023-09-19T11:48:54;21.05;;;14.68;;
33421;SDS011;19763;55.798;37.782;2023-09-19T11:51:24;20.05;;;12.45;;
33421;SDS011;19763;55.798;37.782;2023-09-19T11:53:54;21.42;;;13.02;;
33421;SDS011;19763;55.798;37.782;2023-09-19T11:56:23;20.75;;;13.48;;
33421;SDS011;19763;55.798;37.782;2023-09-19T11:58:51;23.10;;;14.45;;
33421;SDS011;19763;55.798;37.782;2023-09-19T12:01:24;24.70;;;14.25;;
33421;SDS011;19763;55.798;37.782;2023-09-19T12:03:52;18.95;;;13.80;;
33421;SDS011;19763;55.798;37.782;2023-09-19T12:06:20;20.33;;;14.00;;
33421;SDS011;19763;55.798;37.782;2023-09-19T12:08:47;17.23;;;13.38;;
33421;SDS011;19763;55.798;37.782;2023-09-19T12:11:14;20.23;;;14.60;;
33421;SDS011;19763;55.798;37.782;2023-09-19T12:13:45;24.77;;;14.98;;
33421;SDS011;19763;55.798;37.782;2023-09-19T12:16:16;18.60;;;14.45;;
33421;SDS011;19763;55.798;37.782;2023-09-19T12:18:45;15.18;;;12.73;;
33421;SDS011;19763;55.798;37.782;2023-09-19T12:21:22;20.77;;;14.95;;
33421;SDS011;19763;55.798;37.782;2023-09-19T12:26:30;22.42;;;14.07;;
33421;SDS011;19763;55.798;37.782;2023-09-19T12:29:02;15.40;;;12.23;;
33421;SDS011;19763;55.798;37.782;2023-09-19T12:31:30;21.45;;;14.55;;
33421;SDS011;19763;55.798;37.782;2023-09-19T12:34:01;18.35;;;14.30;;
33421;SDS011;19763;55.798;37.782;2023-09-19T12:36:27;19.05;;;13.43;;
33421;SDS011;19763;55.798;37.782;2023-09-19T12:38:57;21.15;;;14.75;;
33421;SDS011;19763;55.798;37.782;2023-09-19T12:41:25;18.98;;;13.20;;
33421;SDS011;19763;55.798;37.782;2023-09-19T12:43:54;20.77;;;13.60;;
33421;SDS011;19763;55.798;37.782;2023-09-19T12:46:21;20.25;;;14.63;;
33421;SDS011;19763;55.798;37.782;2023-09-19T12:49:14;18.58;;;13.90;;
33421;SDS011;19763;55.798;37.782;2023-09-19T12:54:09;22.92;;;14.68;;
33421;SDS011;19763;55.798;37.782;2023-09-19T12:56:40;18.02;;;14.13;;
33421;SDS011;19763;55.798;37.782;2023-09-19T12:59:13;18.95;;;13.65;;
33421;SDS011;19763;55.798;37.782;2023-09-19T13:01:40;20.98;;;15.00;;
33421;SDS011;19763;55.798;37.782;2023-09-19T13:06:45;22.27;;;14.77;;
33421;SDS011;19763;55.798;37.782;2023-09-19T13:09:12;19.17;;;15.20;;
33421;SDS011;19763;55.798;37.782;2023-09-19T13:11:40;20.77;;;14.30;;
33421;SDS011;19763;55.798;37.782;2023-09-19T13:19:45;22.45;;;14.82;;
33421;SDS011;19763;55.798;37.782;2023-09-19T13:25:08;21.25;;;15.90;;
33421;SDS011;19763;55.798;37.782;2023-09-19T13:27:46;20.10;;;15.00;;
33421;SDS011;19763;55.798;37.782;2023-09-19T13:30:13;23.27;;;15.43;;
33421;SDS011;19763;55.798;37.782;2023-09-19T13:32:41;21.90;;;15.20;;
33421;SDS011;19763;55.798;37.782;2023-09-19T13:35:09;21.08;;;15.43;;
33421;SDS011;19763;55.798;37.782;2023-09-19T13:37:35;26.80;;;16.00;;
33421;SDS011;19763;55.798;37.782;2023-09-19T13:40:09;22.02;;;15.18;;
33421;SDS011;19763;55.798;37.782;2023-09-19T13:42:36;25.05;;;17.58;;
33421;SDS011;19763;55.798;37.782;2023-09-19T13:45:02;21.75;;;15.77;;
33421;SDS011;19763;55.798;37.782;2023-09-19T13:47:30;24.92;;;15.85;;
33421;SDS011;19763;55.798;37.782;2023-09-19T13:49:58;18.98;;;14.90;;
33421;SDS011;19763;55.798;37.782;2023-09-19T13:52:29;23.15;;;16.20;;
33421;SDS011;19763;55.798;37.782;2023-09-19T13:54:56;22.50;;;16.33;;
33421;SDS011;19763;55.798;37.782;2023-09-19T13:57:22;27.02;;;17.10;;
33421;SDS011;19763;55.798;37.782;2023-09-19T13:59:49;26.17;;;16.23;;
33421;SDS011;19763;55.798;37.782;2023-09-19T14:02:14;25.88;;;16.70;;
33421;SDS011;19763;55.798;37.782;2023-09-19T14:04:43;25.67;;;16.05;;
33421;SDS011;19763;55.798;37.782;2023-09-19T14:07:10;31.40;;;16.00;;
33421;SDS011;19763;55.798;37.782;2023-09-19T14:09:40;24.95;;;16.10;;
33421;SDS011;19763;55.798;37.782;2023-09-19T14:12:06;26.27;;;16.13;;
33421;SDS011;19763;55.798;37.782;2023-09-19T14:14:32;22.15;;;15.30;;
33421;SDS011;19763;55.798;37.782;2023-09-19T14:16:58;23.90;;;15.32;;
33421;SDS011;19763;55.798;37.782;2023-09-19T14:19:28;19.25;;;14.65;;
33421;SDS011;19763;55.798;37.782;2023-09-19T14:21:54;23.65;;;13.85;;
33421;SDS011;19763;55.798;37.782;2023-09-19T14:24:24;23.58;;;13.20;;
33421;SDS011;19763;55.798;37.782;2023-09-19T14:26:50;21.02;;;15.48;;
33421;SDS011;19763;55.798;37.782;2023-09-19T14:29:16;23.63;;;15.65;;
33421;SDS011;19763;55.798;37.782;2023-09-19T14:31:42;18.20;;;14.00;;
33421;SDS011;19763;55.798;37.782;2023-09-19T14:34:08;24.00;;;15.52;;
33421;SDS011;19763;55.798;37.782;2023-09-19T14:36:37;21.90;;;14.05;;
33421;SDS011;19763;55.798;37.782;2023-09-19T14:39:06;20.00;;;15.70;;
33421;SDS011;19763;55.798;37.782;2023-09-19T14:41:33;22.08;;;14.50;;
33421;SDS011;19763;55.798;37.782;2023-09-19T14:43:59;23.67;;;14.55;;
33421;SDS011;19763;55.798;37.782;2023-09-19T14:46:25;20.80;;;15.20;;
33421;SDS011;19763;55.798;37.782;2023-09-19T14:48:51;21.50;;;15.35;;
33421;SDS011;19763;55.798;37.782;2023-09-19T14:51:17;25.13;;;14.70;;
33421;SDS011;19763;55.798;37.782;2023-09-19T14:53:44;23.05;;;15.52;;
33421;SDS011;19763;55.798;37.782;2023-09-19T14:56:12;24.27;;;15.60;;
33421;SDS011;19763;55.798;37.782;2023-09-19T14:58:38;23.50;;;15.38;;
33421;SDS011;19763;55.798;37.782;2023-09-19T15:01:05;23.33;;;14.57;;
33421;SDS011;19763;55.798;37.782;2023-09-19T15:03:32;25.15;;;14.55;;
33421;SDS011;19763;55.798;37.782;2023-09-19T15:06:03;22.80;;;14.13;;
33421;SDS011;19763;55.798;37.782;2023-09-19T15:08:36;26.58;;;14.18;;
33421;SDS011;19763;55.798;37.782;2023-09-19T15:11:06;17.60;;;13.27;;
33421;SDS011;19763;55.798;37.782;2023-09-19T15:13:35;26.83;;;15.10;;
33421;SDS011;19763;55.798;37.782;2023-09-19T15:16:05;23.75;;;15.30;;
33421;SDS011;19763;55.798;37.782;2023-09-19T15:18:36;20.67;;;14.02;;
33421;SDS011;19763;55.798;37.782;2023-09-19T15:21:06;18.80;;;13.73;;
33421;SDS011;19763;55.798;37.782;2023-09-19T15:23:33;22.48;;;14.13;;
33421;SDS011;19763;55.798;37.782;2023-09-19T15:26:00;23.35;;;14.82;;
33421;SDS011;19763;55.798;37.782;2023-09-19T15:28:29;18.30;;;13.25;;
33421;SDS011;19763;55.798;37.782;2023-09-19T15:31:02;19.50;;;13.88;;
33421;SDS011;19763;55.798;37.782;2023-09-19T15:33:32;18.40;;;14.13;;
33421;SDS011;19763;55.798;37.782;2023-09-19T15:41:18;19.05;;;13.60;;
33421;SDS011;19763;55.798;37.782;2023-09-19T15:43:44;18.33;;;15.07;;
33421;SDS011;19763;55.798;37.782;2023-09-19T15:46:09;18.45;;;14.63;;